aviador You're here:

K24A Decoded Metar

in
Report Time2018-05-25 20:35:00
UTC Time2018-05-25 20:49:05
Flight Rules vfr VFR
Wind130° at 08 kt
W.Rank130° ranks 1
Current wind is above 130° avg. (5.1)
Visibility9999 m
Phenomena:N/A
Clouds:N/A
Expected CloudBase > 2,000 ft AGL from Temp-Dew spread
CeilingNone
Temp21°C
Dew Point16°C (73% RH)
AAT20.1°C
QNH1018 hPa
Raw Report
METAR K24A 252035Z AUTO 13008KT 090V180 10SM CLR 21/16 A3007 RMK AO2
LTG DSNT SE AND NW T02090165=

Extra information for K24A:More info

Social comments